Spruce Pine, Alabama
Current Conditions -  °F | °C
As of 9:56 PM on Thursday 27 Nov 2014 (Local Time) from K1M4 Reporting Station
Clear Clear  
Wind Chill: 28°   Ceiling: Unl
Heat Index: 28°   Visibility: 10mi
Dew Point: 24°   Wind: 0mph
Humidity: 85%   Direction: NA
Pressure: 30.48"   Gusts: NA
Location:  34.39°N, 87.73°W
Report Text: K1M4 280356Z AUTO 00000KT 10SM CLR M02/M04 A3048 RMK AO2 T10221044 SLP330
Loading
Personal Weather Stations






























Interactive Weather Map New forecast layout! Learn more

10-Day Weather Forecast

Advertisements
Track Severe Weather on mobile